createdAt,value
2023-05-22T00:01:56.711Z,24.00
2023-05-22T00:04:23.878Z,23.80
2023-05-22T00:06:50.825Z,23.80
2023-05-22T00:09:18.081Z,23.90
2023-05-22T00:11:45.050Z,23.80
2023-05-22T00:14:13.566Z,23.80
2023-05-22T00:16:41.118Z,23.70
2023-05-22T00:19:13.297Z,23.70
2023-05-22T00:21:40.462Z,23.70
2023-05-22T00:24:07.525Z,23.70
2023-05-22T00:26:34.322Z,23.60
2023-05-22T00:29:01.340Z,23.60
2023-05-22T00:31:29.102Z,23.60
2023-05-22T00:33:56.400Z,23.60
2023-05-22T00:36:23.702Z,23.50
2023-05-22T00:38:50.891Z,23.50
2023-05-22T00:41:17.939Z,23.40
2023-05-22T00:43:46.340Z,23.50
2023-05-22T00:46:14.528Z,23.40
2023-05-22T00:48:41.554Z,23.40
2023-05-22T00:51:08.944Z,23.50
2023-05-22T00:53:37.126Z,23.30
2023-05-22T00:56:04.995Z,23.30
2023-05-22T00:58:31.862Z,23.30
2023-05-22T01:00:59.033Z,23.20
2023-05-22T01:03:26.865Z,23.20
2023-05-22T01:05:54.982Z,23.10
2023-05-22T01:08:22.187Z,23.10
2023-05-22T01:10:54.632Z,23.10
2023-05-22T01:13:30.615Z,23.00
2023-05-22T01:16:01.911Z,23.00
2023-05-22T01:18:43.779Z,23.00
2023-05-22T01:21:32.915Z,22.90
2023-05-22T01:24:11.708Z,22.90
2023-05-22T01:27:14.796Z,22.80
2023-05-22T01:29:48.298Z,22.80
2023-05-22T01:32:21.610Z,22.80
2023-05-22T01:34:53.334Z,22.70
2023-05-22T01:37:22.607Z,22.70
2023-05-22T01:39:51.843Z,22.60
2023-05-22T01:42:19.314Z,22.60
2023-05-22T01:44:47.897Z,22.60
2023-05-22T01:47:15.825Z,22.60
2023-05-22T01:49:43.047Z,22.60
2023-05-22T01:52:31.211Z,22.60
2023-05-22T01:55:05.480Z,22.50
2023-05-22T01:58:10.922Z,22.50
2023-05-22T02:00:41.553Z,22.50
2023-05-22T02:03:19.937Z,22.50
2023-05-22T02:05:54.144Z,22.40
2023-05-22T02:08:22.655Z,22.40
2023-05-22T02:10:51.192Z,22.40
2023-05-22T02:13:21.633Z,22.40
2023-05-22T02:15:49.160Z,22.40
2023-05-22T02:18:16.413Z,22.40
2023-05-22T02:20:45.662Z,22.30
2023-05-22T02:23:12.543Z,22.30
2023-05-22T02:25:39.372Z,22.20
2023-05-22T02:28:06.198Z,22.40
2023-05-22T02:30:33.258Z,22.20
2023-05-22T02:33:00.311Z,22.20
2023-05-22T02:35:27.319Z,22.20
2023-05-22T02:37:54.356Z,22.10
2023-05-22T02:40:21.302Z,22.10
2023-05-22T02:42:48.196Z,22.20
2023-05-22T02:45:16.906Z,22.10
2023-05-22T02:47:43.788Z,22.10
2023-05-22T02:50:12.065Z,22.00
2023-05-22T02:52:40.749Z,22.00
2023-05-22T02:55:08.603Z,22.00
2023-05-22T02:57:35.704Z,21.90
2023-05-22T03:00:06.976Z,22.00
2023-05-22T03:02:34.828Z,21.90
2023-05-22T03:05:01.837Z,21.90
2023-05-22T03:07:29.776Z,21.90
2023-05-22T03:09:56.979Z,21.80
2023-05-22T03:12:23.836Z,21.80
2023-05-22T03:14:50.771Z,21.80
2023-05-22T03:17:17.727Z,21.80
2023-05-22T03:19:44.557Z,21.80
2023-05-22T03:22:11.467Z,21.80
2023-05-22T03:24:39.162Z,21.80
2023-05-22T03:27:07.595Z,21.70
2023-05-22T03:29:39.185Z,21.70
2023-05-22T03:32:06.506Z,21.60
2023-05-22T03:34:33.386Z,21.60
2023-05-22T03:37:01.168Z,21.60
2023-05-22T03:39:28.140Z,21.60
2023-05-22T03:42:00.091Z,21.60
2023-05-22T03:44:27.741Z,21.50
2023-05-22T03:46:55.067Z,21.50
2023-05-22T03:49:21.905Z,21.50
2023-05-22T03:51:48.737Z,21.50
2023-05-22T03:54:16.205Z,21.40
2023-05-22T03:56:43.555Z,21.40
2023-05-22T03:59:10.364Z,21.50
2023-05-22T04:01:39.439Z,21.40
2023-05-22T04:04:06.409Z,21.40
2023-05-22T04:06:33.336Z,21.40
2023-05-22T04:09:01.028Z,21.50
2023-05-22T04:11:30.471Z,21.30
2023-05-22T04:13:57.397Z,21.40
2023-05-22T04:16:24.353Z,21.30
2023-05-22T04:18:51.231Z,21.30
2023-05-22T04:21:19.083Z,21.30
2023-05-22T04:23:45.959Z,21.30
2023-05-22T04:26:13.220Z,21.40
2023-05-22T04:28:40.437Z,21.30
2023-05-22T04:31:07.297Z,21.30
2023-05-22T04:33:34.804Z,21.30
2023-05-22T04:36:02.756Z,21.30
2023-05-22T04:38:29.715Z,21.30
2023-05-22T04:40:57.126Z,21.30
2023-05-22T04:43:26.765Z,21.30
2023-05-22T04:45:54.913Z,21.30
2023-05-22T04:48:22.563Z,21.30
2023-05-22T04:50:54.259Z,21.30
2023-05-22T04:53:21.263Z,21.20
2023-05-22T04:55:48.106Z,21.30
2023-05-22T04:58:15.333Z,21.20
2023-05-22T05:00:42.309Z,21.10
2023-05-22T05:03:11.754Z,21.20
2023-05-22T05:05:38.867Z,21.20
2023-05-22T05:08:06.423Z,21.20
2023-05-22T05:10:33.546Z,21.20
2023-05-22T05:13:00.370Z,21.20
2023-05-22T05:15:28.131Z,21.20
2023-05-22T05:17:55.393Z,21.30
2023-05-22T05:20:22.413Z,21.30
2023-05-22T05:22:49.259Z,21.20
2023-05-22T05:25:17.536Z,21.20
2023-05-22T05:27:44.418Z,21.20
2023-05-22T05:30:11.778Z,21.20
2023-05-22T05:32:58.892Z,21.30
2023-05-22T05:35:42.098Z,21.30
2023-05-22T05:38:11.188Z,21.30
2023-05-22T05:40:40.412Z,21.30
2023-05-22T05:43:09.331Z,21.40
2023-05-22T05:45:37.180Z,21.40
2023-05-22T05:48:04.958Z,21.40
2023-05-22T05:50:32.887Z,21.40
2023-05-22T05:52:59.820Z,21.40
2023-05-22T05:55:26.629Z,21.40
2023-05-22T05:57:54.927Z,21.50
2023-05-22T06:00:30.150Z,21.50
2023-05-22T06:02:59.434Z,21.50
2023-05-22T06:05:47.448Z,21.50
2023-05-22T06:08:23.824Z,21.50
2023-05-22T06:10:50.837Z,21.50
2023-05-22T06:13:33.104Z,21.60
2023-05-22T06:16:02.815Z,24.10
2023-05-22T06:18:31.825Z,21.60
2023-05-22T06:20:59.125Z,21.50
2023-05-22T06:23:26.374Z,21.60
2023-05-22T06:25:55.500Z,21.70
2023-05-22T06:28:23.435Z,21.70
2023-05-22T06:30:50.572Z,21.70
2023-05-22T06:33:20.224Z,21.70
2023-05-22T06:35:47.235Z,21.70
2023-05-22T06:38:15.199Z,21.70
2023-05-22T06:40:43.423Z,23.40
2023-05-22T06:43:15.755Z,21.80
2023-05-22T06:45:59.590Z,21.90
2023-05-22T06:48:38.900Z,21.80
2023-05-22T06:51:24.990Z,21.90
2023-05-22T06:53:57.589Z,21.90
2023-05-22T06:56:29.688Z,21.90
2023-05-22T06:59:06.110Z,21.90
2023-05-22T07:02:08.150Z,22.00
2023-05-22T07:05:07.649Z,21.90
2023-05-22T07:07:45.428Z,22.00
2023-05-22T07:10:12.503Z,22.00
2023-05-22T07:12:39.374Z,22.00
2023-05-22T07:15:06.932Z,21.90
2023-05-22T07:17:34.818Z,22.00
2023-05-22T07:20:02.150Z,21.90
2023-05-22T07:22:30.088Z,22.00
2023-05-22T07:24:57.874Z,22.00
2023-05-22T07:27:29.458Z,22.00
2023-05-22T07:29:56.295Z,22.00
2023-05-22T07:32:23.286Z,22.00
2023-05-22T07:34:50.444Z,22.00
2023-05-22T07:37:18.450Z,22.10
2023-05-22T07:39:47.639Z,22.00
2023-05-22T07:42:15.279Z,22.10
2023-05-22T07:44:48.757Z,22.00
2023-05-22T07:47:17.409Z,22.10
2023-05-22T07:49:44.365Z,22.10
2023-05-22T07:52:11.479Z,22.10
2023-05-22T07:54:39.091Z,22.10
2023-05-22T07:57:08.122Z,22.20
2023-05-22T07:59:38.602Z,22.20
2023-05-22T08:02:05.766Z,22.20
2023-05-22T08:04:32.697Z,22.30
2023-05-22T08:06:59.555Z,22.40
2023-05-22T08:09:26.507Z,22.40
2023-05-22T08:11:53.505Z,22.40
2023-05-22T08:14:22.051Z,21.00
2023-05-22T08:16:49.399Z,22.50
2023-05-22T08:19:16.253Z,22.50
2023-05-22T08:21:43.124Z,22.60
2023-05-22T08:24:09.922Z,22.60
2023-05-22T08:26:36.908Z,22.70
2023-05-22T08:29:03.743Z,22.60
2023-05-22T08:31:31.838Z,22.70
2023-05-22T08:34:02.615Z,22.80
2023-05-22T08:36:31.598Z,22.90
2023-05-22T08:38:59.565Z,22.90
2023-05-22T08:41:27.255Z,22.90
2023-05-22T08:43:55.174Z,23.00
2023-05-22T08:46:26.461Z,23.00
2023-05-22T08:48:57.640Z,23.10
2023-05-22T08:51:28.624Z,23.10
2023-05-22T08:53:57.614Z,23.20
2023-05-22T08:56:27.603Z,23.20
2023-05-22T08:58:57.473Z,23.30
2023-05-22T09:01:24.789Z,23.40
2023-05-22T09:03:52.192Z,23.40
2023-05-22T09:06:19.542Z,23.50
2023-05-22T09:08:46.471Z,23.50
2023-05-22T09:11:13.344Z,23.60
2023-05-22T09:13:41.459Z,23.60
2023-05-22T09:16:13.428Z,23.70
2023-05-22T09:18:42.439Z,23.80
2023-05-22T09:21:28.948Z,23.80
2023-05-22T09:24:01.619Z,23.90
2023-05-22T09:26:29.432Z,24.00
2023-05-22T09:28:57.290Z,24.00
2023-05-22T09:31:24.330Z,24.20
2023-05-22T09:33:51.333Z,24.20
2023-05-22T09:36:18.308Z,24.20
2023-05-22T09:38:45.525Z,24.30
2023-05-22T09:41:12.332Z,24.30
2023-05-22T09:43:39.194Z,24.50
2023-05-22T09:46:06.078Z,24.60
2023-05-22T09:48:36.711Z,24.60
2023-05-22T09:51:05.134Z,24.70
2023-05-22T09:53:33.264Z,24.70
2023-05-22T09:56:01.703Z,24.80
2023-05-22T09:58:31.409Z,25.00
2023-05-22T10:00:59.272Z,24.90
2023-05-22T10:03:27.156Z,24.90
2023-05-22T10:05:58.848Z,25.00
2023-05-22T10:08:28.442Z,25.10
2023-05-22T10:10:55.900Z,25.10
2023-05-22T10:13:24.255Z,25.20
2023-05-22T10:15:51.792Z,25.20
2023-05-22T10:18:19.004Z,25.40
2023-05-22T10:20:49.013Z,25.30
2023-05-22T10:23:17.202Z,25.40
2023-05-22T10:25:45.707Z,25.40
2023-05-22T10:28:16.406Z,25.40
2023-05-22T10:30:51.233Z,25.60
2023-05-22T10:33:47.452Z,25.50
2023-05-22T10:36:28.520Z,27.60
2023-05-22T10:39:01.224Z,25.60
2023-05-22T10:41:28.205Z,25.60
2023-05-22T10:43:56.939Z,25.70
2023-05-22T10:46:24.087Z,25.80
2023-05-22T10:48:54.109Z,25.80
2023-05-22T10:51:24.644Z,25.80
2023-05-22T10:54:00.931Z,25.90
2023-05-22T10:56:35.408Z,25.90
2023-05-22T10:59:10.418Z,26.00
2023-05-22T11:01:38.774Z,26.00
2023-05-22T11:04:19.039Z,26.10
2023-05-22T11:07:05.366Z,26.10
2023-05-22T11:09:33.557Z,26.20
2023-05-22T11:12:19.362Z,26.20
2023-05-22T11:14:51.508Z,26.30
2023-05-22T11:17:22.511Z,26.30
2023-05-22T11:20:01.643Z,26.40
2023-05-22T11:22:37.165Z,26.40
2023-05-22T11:25:07.575Z,26.50
2023-05-22T11:27:35.334Z,26.60
2023-05-22T11:30:02.708Z,26.60
2023-05-22T11:32:30.010Z,26.60
2023-05-22T11:34:57.736Z,26.70
2023-05-22T11:37:24.865Z,26.70
2023-05-22T11:40:04.316Z,26.80
2023-05-22T11:42:31.371Z,26.80
2023-05-22T11:44:58.304Z,26.90
2023-05-22T11:47:27.503Z,26.90
2023-05-22T11:49:54.719Z,25.60
2023-05-22T11:52:21.550Z,27.00
2023-05-22T11:54:49.221Z,27.00
2023-05-22T11:57:16.032Z,27.10
2023-05-22T11:59:48.838Z,27.20
2023-05-22T12:02:19.476Z,27.20
2023-05-22T12:04:46.765Z,27.30
2023-05-22T12:07:14.141Z,27.30
2023-05-22T12:09:42.186Z,27.40
2023-05-22T12:12:12.069Z,27.40
2023-05-22T12:14:39.005Z,26.90
2023-05-22T12:17:06.468Z,27.50
2023-05-22T12:19:33.529Z,27.60
2023-05-22T12:22:01.040Z,27.60
2023-05-22T12:24:38.226Z,27.70
2023-05-22T12:27:09.236Z,27.70
2023-05-22T12:29:36.508Z,27.70
2023-05-22T12:32:05.233Z,27.80
2023-05-22T12:34:36.058Z,27.90
2023-05-22T12:37:03.139Z,27.90
2023-05-22T12:39:30.556Z,28.00
2023-05-22T12:41:57.424Z,28.00
2023-05-22T12:44:24.405Z,28.00
2023-05-22T12:46:52.547Z,28.10
2023-05-22T12:49:19.386Z,28.20
2023-05-22T12:51:46.236Z,28.20
2023-05-22T12:54:14.808Z,28.30
2023-05-22T12:56:41.619Z,28.30
2023-05-22T12:59:08.682Z,28.40
2023-05-22T13:01:35.649Z,28.40
2023-05-22T13:04:02.509Z,28.50
2023-05-22T13:06:30.579Z,28.50
2023-05-22T13:08:57.833Z,28.60
2023-05-22T13:11:26.578Z,28.60
2023-05-22T13:13:53.604Z,28.60
2023-05-22T13:16:20.697Z,28.70
2023-05-22T13:18:48.019Z,28.70
2023-05-22T13:21:15.081Z,28.80
2023-05-22T13:23:42.315Z,28.80
2023-05-22T13:26:09.307Z,28.90
2023-05-22T13:28:36.100Z,28.90
2023-05-22T13:31:02.894Z,29.00
2023-05-22T13:33:29.892Z,29.00
2023-05-22T13:35:56.752Z,29.10
2023-05-22T13:38:23.579Z,29.10
2023-05-22T13:40:50.836Z,29.20
2023-05-22T13:43:18.826Z,29.20
2023-05-22T13:45:45.750Z,29.20
2023-05-22T13:48:12.696Z,29.30
2023-05-22T13:50:39.516Z,29.30
2023-05-22T13:53:06.324Z,29.40
2023-05-22T13:55:33.117Z,29.40
2023-05-22T13:57:59.946Z,29.50
2023-05-22T14:00:26.833Z,29.50
2023-05-22T14:02:53.832Z,29.60
2023-05-22T14:05:21.088Z,29.60
2023-05-22T14:07:47.987Z,29.70
2023-05-22T14:10:15.049Z,29.70
2023-05-22T14:12:41.934Z,29.70
2023-05-22T14:15:09.139Z,29.80
2023-05-22T14:17:35.991Z,29.80
2023-05-22T14:20:03.921Z,29.80
2023-05-22T14:22:34.266Z,29.90
2023-05-22T14:25:06.006Z,29.90
2023-05-22T14:27:32.814Z,30.00
2023-05-22T14:29:59.680Z,30.00
2023-05-22T14:32:26.510Z,30.00
2023-05-22T14:34:54.528Z,30.10
2023-05-22T14:37:21.835Z,30.10
2023-05-22T14:39:48.619Z,30.10
2023-05-22T14:42:15.402Z,29.50
2023-05-22T14:44:42.182Z,30.10
2023-05-22T14:47:08.971Z,30.00
2023-05-22T14:49:35.778Z,30.10
2023-05-22T14:52:02.608Z,30.00
2023-05-22T14:54:29.485Z,30.00
2023-05-22T14:56:56.280Z,30.00
2023-05-22T14:59:23.121Z,30.00
2023-05-22T15:01:51.563Z,30.00
2023-05-22T15:04:18.801Z,30.00
2023-05-22T15:06:45.976Z,30.00
2023-05-22T15:09:12.863Z,30.10
2023-05-22T15:11:40.980Z,30.00
2023-05-22T15:14:07.845Z,30.10
2023-05-22T15:16:34.829Z,30.10
2023-05-22T15:19:01.715Z,30.10
2023-05-22T15:21:28.847Z,30.20
2023-05-22T15:23:55.641Z,30.20
2023-05-22T15:26:22.506Z,30.20
2023-05-22T15:28:49.438Z,30.20
2023-05-22T15:31:16.327Z,30.30
2023-05-22T15:33:43.169Z,30.30
2023-05-22T15:36:10.116Z,30.30
2023-05-22T15:38:36.936Z,30.30
2023-05-22T15:41:03.781Z,30.40
2023-05-22T15:43:30.838Z,30.30
2023-05-22T15:45:57.796Z,30.40
2023-05-22T15:48:24.678Z,30.40
2023-05-22T15:50:51.489Z,30.40
2023-05-22T15:53:18.353Z,30.40
2023-05-22T15:55:45.223Z,30.50
2023-05-22T15:58:12.006Z,30.40
2023-05-22T16:00:41.263Z,30.40
2023-05-22T16:03:08.878Z,30.40
2023-05-22T16:05:38.585Z,30.50
2023-05-22T16:08:12.437Z,30.50
2023-05-22T16:10:41.609Z,30.50
2023-05-22T16:13:10.599Z,30.50
2023-05-22T16:15:39.781Z,30.50
2023-05-22T16:18:07.975Z,30.40
2023-05-22T16:20:35.718Z,30.40
2023-05-22T16:23:02.604Z,30.30
2023-05-22T16:25:29.394Z,30.40
2023-05-22T16:27:56.209Z,30.30
2023-05-22T16:30:23.554Z,30.30
2023-05-22T16:32:50.505Z,30.30
2023-05-22T16:35:19.436Z,30.30
2023-05-22T16:37:46.265Z,30.30
2023-05-22T16:40:13.469Z,30.30
2023-05-22T16:42:40.464Z,30.20
2023-05-22T16:45:08.005Z,30.10
2023-05-22T16:47:34.839Z,30.10
2023-05-22T16:50:01.800Z,30.00
2023-05-22T16:52:29.311Z,29.90
2023-05-22T16:54:56.580Z,29.90
2023-05-22T16:57:27.457Z,29.80
2023-05-22T16:59:57.100Z,29.60
2023-05-22T17:02:24.765Z,29.50
2023-05-22T17:04:51.591Z,29.40
2023-05-22T17:07:18.421Z,29.30
2023-05-22T17:09:45.251Z,29.10
2023-05-22T17:12:12.163Z,28.90
2023-05-22T17:14:39.048Z,28.80
2023-05-22T17:17:06.411Z,28.60
2023-05-22T17:19:33.363Z,28.40
2023-05-22T17:22:00.316Z,28.30
2023-05-22T17:24:27.822Z,28.20
2023-05-22T17:26:54.729Z,28.10
2023-05-22T17:29:21.660Z,28.00
2023-05-22T17:31:48.526Z,27.90
2023-05-22T17:34:15.407Z,27.90
2023-05-22T17:36:44.726Z,27.80
2023-05-22T17:39:12.363Z,27.70
2023-05-22T17:41:39.242Z,27.70
2023-05-22T17:44:06.077Z,27.60
2023-05-22T17:46:33.109Z,27.70
2023-05-22T17:49:00.117Z,27.60
2023-05-22T17:51:27.090Z,27.60
2023-05-22T17:53:56.322Z,27.50
2023-05-22T17:56:23.544Z,27.60
2023-05-22T17:58:50.823Z,27.50
2023-05-22T18:01:18.161Z,27.50
2023-05-22T18:03:46.918Z,27.50
2023-05-22T18:06:14.007Z,27.50
2023-05-22T18:08:41.013Z,27.50
2023-05-22T18:11:07.866Z,29.30
2023-05-22T18:13:34.828Z,27.50
2023-05-22T18:16:03.489Z,27.50
2023-05-22T18:18:30.718Z,27.50
2023-05-22T18:20:58.991Z,27.50
2023-05-22T18:23:26.240Z,27.50
2023-05-22T18:25:53.488Z,27.40
2023-05-22T18:28:26.572Z,27.40
2023-05-22T18:30:54.315Z,27.40
2023-05-22T18:33:24.726Z,27.40
2023-05-22T18:35:51.717Z,27.40
2023-05-22T18:38:18.670Z,27.30
2023-05-22T18:40:47.186Z,27.30
2023-05-22T18:43:13.998Z,27.30
2023-05-22T18:45:41.055Z,27.30
2023-05-22T18:48:08.514Z,27.30
2023-05-22T18:50:35.533Z,27.20
2023-05-22T18:53:02.483Z,27.20
2023-05-22T18:55:29.465Z,27.20
2023-05-22T18:57:56.330Z,27.20
2023-05-22T19:00:23.394Z,27.20
2023-05-22T19:02:51.111Z,27.10
2023-05-22T19:05:18.039Z,27.10
2023-05-22T19:07:45.100Z,27.10
2023-05-22T19:10:11.996Z,27.00
2023-05-22T19:12:38.920Z,27.00
2023-05-22T19:15:06.937Z,27.00
2023-05-22T19:17:33.767Z,27.00
2023-05-22T19:20:01.090Z,26.90
2023-05-22T19:22:27.948Z,26.90
2023-05-22T19:24:54.746Z,26.80
2023-05-22T19:27:21.631Z,26.80
2023-05-22T19:29:49.049Z,26.70
2023-05-22T19:32:16.320Z,26.70
2023-05-22T19:34:43.322Z,26.70
2023-05-22T19:37:10.843Z,26.60
2023-05-22T19:39:38.317Z,26.60
2023-05-22T19:42:08.734Z,26.50
2023-05-22T19:44:36.311Z,26.50
2023-05-22T19:47:03.504Z,26.50
2023-05-22T19:49:31.665Z,26.40
2023-05-22T19:51:59.825Z,26.40
2023-05-22T19:54:26.660Z,26.30
2023-05-22T19:56:54.389Z,26.30
2023-05-22T19:59:21.201Z,26.20
2023-05-22T20:01:48.424Z,26.20
2023-05-22T20:04:15.697Z,26.10
2023-05-22T20:06:45.316Z,26.10
2023-05-22T20:09:12.312Z,26.00
2023-05-22T20:11:39.142Z,26.00
2023-05-22T20:14:05.942Z,25.90
2023-05-22T20:16:32.778Z,25.90
2023-05-22T20:18:59.771Z,25.80
2023-05-22T20:21:26.644Z,25.80
2023-05-22T20:23:53.452Z,25.70
2023-05-22T20:26:20.536Z,25.70
2023-05-22T20:28:47.497Z,25.60
2023-05-22T20:31:14.526Z,25.60
2023-05-22T20:33:41.509Z,25.60
2023-05-22T20:36:08.660Z,25.50
2023-05-22T20:38:35.514Z,25.40
2023-05-22T20:41:02.614Z,25.40
2023-05-22T20:43:32.346Z,25.30
2023-05-22T20:45:59.206Z,25.30
2023-05-22T20:48:26.126Z,25.20
2023-05-22T20:50:53.013Z,25.20
2023-05-22T20:53:19.827Z,25.20
2023-05-22T20:55:46.710Z,25.10
2023-05-22T20:58:14.792Z,25.10
2023-05-22T21:00:42.049Z,25.10
2023-05-22T21:03:09.116Z,25.00
2023-05-22T21:05:36.606Z,25.00
2023-05-22T21:08:03.738Z,24.90
2023-05-22T21:10:30.550Z,24.90
2023-05-22T21:12:57.521Z,24.90
2023-05-22T21:15:24.397Z,24.80
2023-05-22T21:17:51.227Z,24.80
2023-05-22T21:20:18.406Z,24.80
2023-05-22T21:22:45.638Z,24.70
2023-05-22T21:25:12.479Z,24.70
2023-05-22T21:27:39.309Z,24.70
2023-05-22T21:30:06.739Z,24.70
2023-05-22T21:32:33.639Z,24.60
2023-05-22T21:35:00.513Z,24.60
2023-05-22T21:37:27.369Z,24.60
2023-05-22T21:39:54.326Z,24.60
2023-05-22T21:42:21.694Z,24.60
2023-05-22T21:44:48.527Z,24.60
2023-05-22T21:47:15.362Z,24.60
2023-05-22T21:49:42.294Z,24.60
2023-05-22T21:52:09.215Z,24.60
2023-05-22T21:54:36.169Z,24.60
2023-05-22T21:57:03.056Z,24.60
2023-05-22T21:59:30.106Z,24.60
2023-05-22T22:01:57.176Z,24.50
2023-05-22T22:04:24.096Z,24.60
2023-05-22T22:06:50.940Z,24.50
2023-05-22T22:09:17.982Z,24.50
2023-05-22T22:11:45.695Z,24.50
2023-05-22T22:14:12.536Z,24.50
2023-05-22T22:16:40.600Z,24.50
2023-05-22T22:19:09.420Z,24.50
2023-05-22T22:21:55.260Z,24.40
2023-05-22T22:24:22.320Z,24.40
2023-05-22T22:26:49.392Z,24.40
2023-05-22T22:29:16.342Z,24.40
2023-05-22T22:31:43.252Z,24.40
2023-05-22T22:34:10.060Z,24.30
2023-05-22T22:36:36.896Z,24.30
2023-05-22T22:39:03.968Z,24.30
2023-05-22T22:41:30.784Z,24.30
2023-05-22T22:43:57.670Z,24.20
2023-05-22T22:46:24.598Z,24.20
2023-05-22T22:48:51.602Z,24.20
2023-05-22T22:51:19.158Z,24.20
2023-05-22T22:53:46.001Z,24.30
2023-05-22T22:56:13.022Z,24.20
2023-05-22T22:58:39.896Z,24.20
2023-05-22T23:01:06.734Z,24.20
2023-05-22T23:03:33.551Z,24.20
2023-05-22T23:06:01.539Z,24.10
2023-05-22T23:08:28.335Z,24.20
2023-05-22T23:10:55.103Z,24.10
2023-05-22T23:13:21.930Z,24.00
2023-05-22T23:15:48.792Z,24.10
2023-05-22T23:18:15.659Z,24.00
2023-05-22T23:20:42.550Z,24.10
2023-05-22T23:23:09.332Z,24.10
2023-05-22T23:25:36.138Z,24.00
2023-05-22T23:28:02.945Z,24.00
2023-05-22T23:30:30.056Z,24.00
2023-05-22T23:32:56.900Z,24.00
2023-05-22T23:35:24.025Z,21.10
2023-05-22T23:37:51.067Z,24.00
2023-05-22T23:40:17.905Z,24.00
2023-05-22T23:42:44.735Z,23.90
2023-05-22T23:45:11.632Z,23.90
2023-05-22T23:47:38.516Z,23.90
2023-05-22T23:50:06.061Z,22.50
2023-05-22T23:52:32.873Z,23.90
2023-05-22T23:54:59.764Z,23.90
2023-05-22T23:57:26.560Z,23.90
2023-05-22T23:59:53.351Z,23.90
